FQMA

Maputo Airport

Maputo, Mozambique
METAR FQMA 222100Z VRB01KT CAVOK 21/18 Q1016 NOSIG
Observed Flight Rules
Apr-22 @ 21:00 UTC (58 minutes ago) Visual Flight Rules
Wind Visibility Clouds
Variable at 1 knots 10,000+ meters
  • Clear skies
Temperatures Readings
Current 21°C / 70°F
Dewpoint 18°C / 64°F
Humidity 83%
Altimeter 30" Hg
Pressure 1016 hPa
Elevation 44
METAR FQMA 222100Z VRB01KT CAVOK 21/18 Q1016 NOSIG
Observed Flight Rules
Apr-22 @ 21:00 UTC
(58 minutes ago)
VFR
Wind Visibility
Variable at 1 knots 10,000+ meters
Clouds
  • Clear skies
Temperature Dewpoint
21°C / 70°F 18°C / 64°F
Humidity Altimeter Pressure
83% 30" Hg 1016 hPa